sensor_id;sensor_type;location;lat;lon;timestamp;temperature;humidity
7846;DHT22;3968;51.424;6.788;2024-02-23T00:01:39;7.50;99.90
7846;DHT22;3968;51.424;6.788;2024-02-23T00:04:05;7.40;99.90
7846;DHT22;3968;51.424;6.788;2024-02-23T00:06:33;7.40;99.90
7846;DHT22;3968;51.424;6.788;2024-02-23T00:08:59;7.40;99.90
7846;DHT22;3968;51.424;6.788;2024-02-23T00:11:25;7.30;99.90
7846;DHT22;3968;51.424;6.788;2024-02-23T00:13:50;7.40;99.90
7846;DHT22;3968;51.424;6.788;2024-02-23T00:16:18;7.30;99.90
7846;DHT22;3968;51.424;6.788;2024-02-23T00:18:45;7.30;99.90
7846;DHT22;3968;51.424;6.788;2024-02-23T00:21:10;7.30;99.90
7846;DHT22;3968;51.424;6.788;2024-02-23T00:23:36;7.30;99.90
7846;DHT22;3968;51.424;6.788;2024-02-23T00:26:04;7.20;99.90
7846;DHT22;3968;51.424;6.788;2024-02-23T00:28:30;7.30;99.90
7846;DHT22;3968;51.424;6.788;2024-02-23T00:30:55;7.30;99.90
7846;DHT22;3968;51.424;6.788;2024-02-23T00:33:21;7.30;99.90
7846;DHT22;3968;51.424;6.788;2024-02-23T00:35:46;7.40;99.90
7846;DHT22;3968;51.424;6.788;2024-02-23T00:38:12;7.40;99.90
7846;DHT22;3968;51.424;6.788;2024-02-23T00:40:37;7.40;99.90
7846;DHT22;3968;51.424;6.788;2024-02-23T00:43:04;7.40;99.90
7846;DHT22;3968;51.424;6.788;2024-02-23T00:45:29;7.40;99.90
7846;DHT22;3968;51.424;6.788;2024-02-23T00:47:55;7.40;99.90
7846;DHT22;3968;51.424;6.788;2024-02-23T00:50:22;7.50;99.90
7846;DHT22;3968;51.424;6.788;2024-02-23T00:52:51;7.50;99.90
7846;DHT22;3968;51.424;6.788;2024-02-23T00:55:17;7.50;99.90
7846;DHT22;3968;51.424;6.788;2024-02-23T00:57:43;7.50;99.90
7846;DHT22;3968;51.424;6.788;2024-02-23T01:00:09;7.50;99.90
7846;DHT22;3968;51.424;6.788;2024-02-23T01:02:35;7.50;99.90
7846;DHT22;3968;51.424;6.788;2024-02-23T01:05:00;7.50;99.90
7846;DHT22;3968;51.424;6.788;2024-02-23T01:07:26;7.50;99.90
7846;DHT22;3968;51.424;6.788;2024-02-23T01:09:51;7.50;99.90
7846;DHT22;3968;51.424;6.788;2024-02-23T01:12:17;7.50;99.90
7846;DHT22;3968;51.424;6.788;2024-02-23T01:14:43;7.50;99.90
7846;DHT22;3968;51.424;6.788;2024-02-23T01:17:08;7.50;99.90
7846;DHT22;3968;51.424;6.788;2024-02-23T01:19:34;7.50;99.90
7846;DHT22;3968;51.424;6.788;2024-02-23T01:21:59;7.40;99.90
7846;DHT22;3968;51.424;6.788;2024-02-23T01:24:28;7.40;99.90
7846;DHT22;3968;51.424;6.788;2024-02-23T01:26:57;7.40;99.90
7846;DHT22;3968;51.424;6.788;2024-02-23T01:29:25;7.40;99.90
7846;DHT22;3968;51.424;6.788;2024-02-23T01:31:50;7.50;99.90
7846;DHT22;3968;51.424;6.788;2024-02-23T01:34:17;7.60;99.90
7846;DHT22;3968;51.424;6.788;2024-02-23T01:36:43;7.50;99.90
7846;DHT22;3968;51.424;6.788;2024-02-23T01:39:09;7.60;99.90
7846;DHT22;3968;51.424;6.788;2024-02-23T01:41:35;7.60;99.90
7846;DHT22;3968;51.424;6.788;2024-02-23T01:44:01;7.60;99.90
7846;DHT22;3968;51.424;6.788;2024-02-23T01:46:26;7.60;99.90
7846;DHT22;3968;51.424;6.788;2024-02-23T01:48:52;7.70;99.90
7846;DHT22;3968;51.424;6.788;2024-02-23T01:51:18;7.70;99.90
7846;DHT22;3968;51.424;6.788;2024-02-23T01:53:44;7.70;99.90
7846;DHT22;3968;51.424;6.788;2024-02-23T01:56:11;7.70;99.90
7846;DHT22;3968;51.424;6.788;2024-02-23T01:58:37;7.60;99.90
7846;DHT22;3968;51.424;6.788;2024-02-23T02:01:03;7.60;99.90
7846;DHT22;3968;51.424;6.788;2024-02-23T02:03:29;7.60;99.90
7846;DHT22;3968;51.424;6.788;2024-02-23T02:05:56;7.70;99.90
7846;DHT22;3968;51.424;6.788;2024-02-23T02:08:25;7.70;99.90
7846;DHT22;3968;51.424;6.788;2024-02-23T02:10:50;7.70;99.90
7846;DHT22;3968;51.424;6.788;2024-02-23T02:13:16;7.70;99.90
7846;DHT22;3968;51.424;6.788;2024-02-23T02:15:42;7.70;99.90
7846;DHT22;3968;51.424;6.788;2024-02-23T02:18:09;7.70;99.90
7846;DHT22;3968;51.424;6.788;2024-02-23T02:20:36;7.60;99.90
7846;DHT22;3968;51.424;6.788;2024-02-23T02:23:02;7.60;99.90
7846;DHT22;3968;51.424;6.788;2024-02-23T02:25:27;7.60;99.90
7846;DHT22;3968;51.424;6.788;2024-02-23T02:27:53;7.60;99.90
7846;DHT22;3968;51.424;6.788;2024-02-23T02:30:18;7.50;99.90
7846;DHT22;3968;51.424;6.788;2024-02-23T02:32:45;7.50;99.90
7846;DHT22;3968;51.424;6.788;2024-02-23T02:35:11;7.50;99.90
7846;DHT22;3968;51.424;6.788;2024-02-23T02:37:37;7.50;99.90
7846;DHT22;3968;51.424;6.788;2024-02-23T02:40:04;7.40;99.90
7846;DHT22;3968;51.424;6.788;2024-02-23T02:42:30;7.40;99.90
7846;DHT22;3968;51.424;6.788;2024-02-23T02:44:56;7.40;99.90
7846;DHT22;3968;51.424;6.788;2024-02-23T02:47:22;7.40;99.90
7846;DHT22;3968;51.424;6.788;2024-02-23T02:49:48;7.40;99.90
7846;DHT22;3968;51.424;6.788;2024-02-23T02:52:14;7.30;99.90
7846;DHT22;3968;51.424;6.788;2024-02-23T02:54:40;7.30;99.90
7846;DHT22;3968;51.424;6.788;2024-02-23T02:57:05;7.30;99.90
7846;DHT22;3968;51.424;6.788;2024-02-23T02:59:34;7.30;99.90
7846;DHT22;3968;51.424;6.788;2024-02-23T03:02:01;7.30;99.90
7846;DHT22;3968;51.424;6.788;2024-02-23T03:04:26;7.30;99.90
7846;DHT22;3968;51.424;6.788;2024-02-23T03:06:52;7.30;99.90
7846;DHT22;3968;51.424;6.788;2024-02-23T03:09:17;7.30;99.90
7846;DHT22;3968;51.424;6.788;2024-02-23T03:11:43;7.30;99.90
7846;DHT22;3968;51.424;6.788;2024-02-23T03:14:09;7.30;99.90
7846;DHT22;3968;51.424;6.788;2024-02-23T03:16:35;7.30;99.90
7846;DHT22;3968;51.424;6.788;2024-02-23T03:19:02;7.20;99.90
7846;DHT22;3968;51.424;6.788;2024-02-23T03:21:28;7.10;99.90
7846;DHT22;3968;51.424;6.788;2024-02-23T03:23:54;7.10;99.90
7846;DHT22;3968;51.424;6.788;2024-02-23T03:26:20;7.20;99.90
7846;DHT22;3968;51.424;6.788;2024-02-23T03:28:45;7.20;99.90
7846;DHT22;3968;51.424;6.788;2024-02-23T03:31:11;7.10;99.90
7846;DHT22;3968;51.424;6.788;2024-02-23T03:33:36;7.10;99.90
7846;DHT22;3968;51.424;6.788;2024-02-23T03:36:03;7.20;99.90
7846;DHT22;3968;51.424;6.788;2024-02-23T03:38:29;7.20;99.90
7846;DHT22;3968;51.424;6.788;2024-02-23T03:40:55;7.20;99.90
7846;DHT22;3968;51.424;6.788;2024-02-23T03:43:21;7.20;99.90
7846;DHT22;3968;51.424;6.788;2024-02-23T03:45:47;7.30;99.90
7846;DHT22;3968;51.424;6.788;2024-02-23T03:48:13;7.30;99.90
7846;DHT22;3968;51.424;6.788;2024-02-23T03:50:38;7.30;99.90
7846;DHT22;3968;51.424;6.788;2024-02-23T03:53:04;7.20;99.90
7846;DHT22;3968;51.424;6.788;2024-02-23T03:55:30;7.30;99.90
7846;DHT22;3968;51.424;6.788;2024-02-23T03:57:55;7.30;99.90
7846;DHT22;3968;51.424;6.788;2024-02-23T04:00:21;7.30;99.90
7846;DHT22;3968;51.424;6.788;2024-02-23T04:02:48;7.30;99.90
7846;DHT22;3968;51.424;6.788;2024-02-23T04:05:14;7.40;99.90
7846;DHT22;3968;51.424;6.788;2024-02-23T04:07:40;7.40;99.90
7846;DHT22;3968;51.424;6.788;2024-02-23T04:10:06;7.40;99.90
7846;DHT22;3968;51.424;6.788;2024-02-23T04:12:32;7.40;99.90
7846;DHT22;3968;51.424;6.788;2024-02-23T04:14:58;7.50;99.90
7846;DHT22;3968;51.424;6.788;2024-02-23T04:17:23;7.50;99.90
7846;DHT22;3968;51.424;6.788;2024-02-23T04:19:49;7.50;99.90
7846;DHT22;3968;51.424;6.788;2024-02-23T04:22:14;7.50;99.90
7846;DHT22;3968;51.424;6.788;2024-02-23T04:24:41;7.60;99.90
7846;DHT22;3968;51.424;6.788;2024-02-23T04:27:09;7.60;99.90
7846;DHT22;3968;51.424;6.788;2024-02-23T04:29:34;7.60;99.90
7846;DHT22;3968;51.424;6.788;2024-02-23T04:32:01;7.60;99.90
7846;DHT22;3968;51.424;6.788;2024-02-23T04:34:27;7.60;99.90
7846;DHT22;3968;51.424;6.788;2024-02-23T04:36:53;7.60;99.90
7846;DHT22;3968;51.424;6.788;2024-02-23T04:39:19;7.60;99.90
7846;DHT22;3968;51.424;6.788;2024-02-23T04:41:45;7.50;99.90
7846;DHT22;3968;51.424;6.788;2024-02-23T04:44:11;7.50;99.90
7846;DHT22;3968;51.424;6.788;2024-02-23T04:46:36;7.50;99.90
7846;DHT22;3968;51.424;6.788;2024-02-23T04:49:02;7.50;99.90
7846;DHT22;3968;51.424;6.788;2024-02-23T04:51:28;7.50;99.90
7846;DHT22;3968;51.424;6.788;2024-02-23T04:53:53;7.50;99.90
7846;DHT22;3968;51.424;6.788;2024-02-23T04:56:19;7.60;99.90
7846;DHT22;3968;51.424;6.788;2024-02-23T04:58:46;7.60;99.90
7846;DHT22;3968;51.424;6.788;2024-02-23T05:01:12;7.60;99.90
7846;DHT22;3968;51.424;6.788;2024-02-23T05:03:38;7.60;99.90
7846;DHT22;3968;51.424;6.788;2024-02-23T05:06:04;7.60;99.90
7846;DHT22;3968;51.424;6.788;2024-02-23T05:08:30;7.50;99.90
7846;DHT22;3968;51.424;6.788;2024-02-23T05:10:56;7.60;99.90
7846;DHT22;3968;51.424;6.788;2024-02-23T05:13:22;7.60;99.90
7846;DHT22;3968;51.424;6.788;2024-02-23T05:15:48;7.60;99.90
7846;DHT22;3968;51.424;6.788;2024-02-23T05:18:14;7.60;99.90
7846;DHT22;3968;51.424;6.788;2024-02-23T05:20:39;7.60;99.90
7846;DHT22;3968;51.424;6.788;2024-02-23T05:23:05;7.60;99.90
7846;DHT22;3968;51.424;6.788;2024-02-23T05:25:31;7.60;99.90
7846;DHT22;3968;51.424;6.788;2024-02-23T05:27:56;7.70;99.90
7846;DHT22;3968;51.424;6.788;2024-02-23T05:30:22;7.70;99.90
7846;DHT22;3968;51.424;6.788;2024-02-23T05:32:48;7.70;99.90
7846;DHT22;3968;51.424;6.788;2024-02-23T05:35:14;7.70;99.90
7846;DHT22;3968;51.424;6.788;2024-02-23T05:37:41;7.70;99.90
7846;DHT22;3968;51.424;6.788;2024-02-23T05:40:07;7.70;99.90
7846;DHT22;3968;51.424;6.788;2024-02-23T05:42:38;7.70;99.90
7846;DHT22;3968;51.424;6.788;2024-02-23T05:45:05;7.70;99.90
7846;DHT22;3968;51.424;6.788;2024-02-23T05:47:43;7.70;99.90
7846;DHT22;3968;51.424;6.788;2024-02-23T05:50:09;7.70;99.90
7846;DHT22;3968;51.424;6.788;2024-02-23T05:52:35;7.60;99.90
7846;DHT22;3968;51.424;6.788;2024-02-23T05:55:02;7.60;99.90
7846;DHT22;3968;51.424;6.788;2024-02-23T05:57:29;7.60;99.90
7846;DHT22;3968;51.424;6.788;2024-02-23T05:59:55;7.60;99.90
7846;DHT22;3968;51.424;6.788;2024-02-23T06:02:21;7.60;99.90
7846;DHT22;3968;51.424;6.788;2024-02-23T06:04:47;7.60;99.90
7846;DHT22;3968;51.424;6.788;2024-02-23T06:07:13;7.60;99.90
7846;DHT22;3968;51.424;6.788;2024-02-23T06:09:41;7.70;99.90
7846;DHT22;3968;51.424;6.788;2024-02-23T06:12:07;7.70;99.90
7846;DHT22;3968;51.424;6.788;2024-02-23T06:14:32;7.80;99.90
7846;DHT22;3968;51.424;6.788;2024-02-23T06:16:58;8.00;99.90
7846;DHT22;3968;51.424;6.788;2024-02-23T06:19:24;8.10;99.90
7846;DHT22;3968;51.424;6.788;2024-02-23T06:21:49;8.10;99.90
7846;DHT22;3968;51.424;6.788;2024-02-23T06:24:16;8.10;99.90
7846;DHT22;3968;51.424;6.788;2024-02-23T06:26:41;8.00;99.90
7846;DHT22;3968;51.424;6.788;2024-02-23T06:29:07;8.00;99.90
7846;DHT22;3968;51.424;6.788;2024-02-23T06:31:38;8.00;99.90
7846;DHT22;3968;51.424;6.788;2024-02-23T06:34:04;8.00;99.90
7846;DHT22;3968;51.424;6.788;2024-02-23T06:36:30;7.90;99.90
7846;DHT22;3968;51.424;6.788;2024-02-23T06:38:56;7.90;99.90
7846;DHT22;3968;51.424;6.788;2024-02-23T06:41:21;7.90;99.90
7846;DHT22;3968;51.424;6.788;2024-02-23T06:43:47;7.90;99.90
7846;DHT22;3968;51.424;6.788;2024-02-23T06:46:13;7.80;99.90
7846;DHT22;3968;51.424;6.788;2024-02-23T06:48:39;7.80;99.90
7846;DHT22;3968;51.424;6.788;2024-02-23T06:51:07;7.80;99.90
7846;DHT22;3968;51.424;6.788;2024-02-23T06:53:34;7.80;99.90
7846;DHT22;3968;51.424;6.788;2024-02-23T06:56:00;7.80;99.90
7846;DHT22;3968;51.424;6.788;2024-02-23T06:58:26;7.80;99.90
7846;DHT22;3968;51.424;6.788;2024-02-23T07:00:52;7.80;99.90
7846;DHT22;3968;51.424;6.788;2024-02-23T07:03:18;7.80;99.90
7846;DHT22;3968;51.424;6.788;2024-02-23T07:05:43;7.80;99.90
7846;DHT22;3968;51.424;6.788;2024-02-23T07:08:10;7.80;99.90
7846;DHT22;3968;51.424;6.788;2024-02-23T07:10:36;7.80;99.90
7846;DHT22;3968;51.424;6.788;2024-02-23T07:13:02;7.80;99.90
7846;DHT22;3968;51.424;6.788;2024-02-23T07:15:27;7.90;99.90
7846;DHT22;3968;51.424;6.788;2024-02-23T07:17:53;7.90;99.90
7846;DHT22;3968;51.424;6.788;2024-02-23T07:20:18;7.90;99.90
7846;DHT22;3968;51.424;6.788;2024-02-23T07:22:45;7.90;99.90
7846;DHT22;3968;51.424;6.788;2024-02-23T07:25:11;7.90;99.90
7846;DHT22;3968;51.424;6.788;2024-02-23T07:27:37;8.00;99.90
7846;DHT22;3968;51.424;6.788;2024-02-23T07:30:05;8.00;99.90
7846;DHT22;3968;51.424;6.788;2024-02-23T07:32:31;8.00;99.90
7846;DHT22;3968;51.424;6.788;2024-02-23T07:34:57;8.00;99.90
7846;DHT22;3968;51.424;6.788;2024-02-23T07:37:22;8.10;99.90
7846;DHT22;3968;51.424;6.788;2024-02-23T07:39:48;8.10;99.90
7846;DHT22;3968;51.424;6.788;2024-02-23T07:42:13;8.10;99.90
7846;DHT22;3968;51.424;6.788;2024-02-23T07:44:44;8.10;99.90
7846;DHT22;3968;51.424;6.788;2024-02-23T07:47:09;8.20;99.90
7846;DHT22;3968;51.424;6.788;2024-02-23T07:49:35;8.20;99.90
7846;DHT22;3968;51.424;6.788;2024-02-23T07:52:01;8.20;99.90
7846;DHT22;3968;51.424;6.788;2024-02-23T07:54:26;8.30;99.90
7846;DHT22;3968;51.424;6.788;2024-02-23T07:56:52;8.30;99.90
7846;DHT22;3968;51.424;6.788;2024-02-23T07:59:17;8.30;99.90
7846;DHT22;3968;51.424;6.788;2024-02-23T08:01:43;8.30;99.90
7846;DHT22;3968;51.424;6.788;2024-02-23T08:04:08;8.40;99.90
7846;DHT22;3968;51.424;6.788;2024-02-23T08:06:34;8.40;99.90
7846;DHT22;3968;51.424;6.788;2024-02-23T08:08:59;8.40;99.90
7846;DHT22;3968;51.424;6.788;2024-02-23T08:11:25;8.30;99.90
7846;DHT22;3968;51.424;6.788;2024-02-23T08:13:51;8.40;99.90
7846;DHT22;3968;51.424;6.788;2024-02-23T08:16:16;8.40;99.90
7846;DHT22;3968;51.424;6.788;2024-02-23T08:18:43;8.30;99.90
7846;DHT22;3968;51.424;6.788;2024-02-23T08:21:10;8.30;99.90
7846;DHT22;3968;51.424;6.788;2024-02-23T08:23:36;8.30;99.90
7846;DHT22;3968;51.424;6.788;2024-02-23T08:26:01;8.30;99.90
7846;DHT22;3968;51.424;6.788;2024-02-23T08:28:27;8.20;99.90
7846;DHT22;3968;51.424;6.788;2024-02-23T08:30:53;8.20;99.90
7846;DHT22;3968;51.424;6.788;2024-02-23T08:33:18;8.20;99.90
7846;DHT22;3968;51.424;6.788;2024-02-23T08:35:44;8.20;99.90
7846;DHT22;3968;51.424;6.788;2024-02-23T08:38:10;8.20;99.90
7846;DHT22;3968;51.424;6.788;2024-02-23T08:40:36;8.20;99.90
7846;DHT22;3968;51.424;6.788;2024-02-23T08:43:02;8.40;99.90
7846;DHT22;3968;51.424;6.788;2024-02-23T08:45:28;8.50;99.90
7846;DHT22;3968;51.424;6.788;2024-02-23T08:47:54;8.60;99.90
7846;DHT22;3968;51.424;6.788;2024-02-23T08:50:19;8.60;99.90
7846;DHT22;3968;51.424;6.788;2024-02-23T08:52:45;8.50;99.70
7846;DHT22;3968;51.424;6.788;2024-02-23T08:55:10;8.40;99.60
7846;DHT22;3968;51.424;6.788;2024-02-23T08:57:37;8.40;99.30
7846;DHT22;3968;51.424;6.788;2024-02-23T09:00:04;8.40;99.90
7846;DHT22;3968;51.424;6.788;2024-02-23T09:02:30;8.40;99.90
7846;DHT22;3968;51.424;6.788;2024-02-23T09:04:57;8.50;99.90
7846;DHT22;3968;51.424;6.788;2024-02-23T09:07:23;8.50;99.90
7846;DHT22;3968;51.424;6.788;2024-02-23T09:09:49;8.60;99.90
7846;DHT22;3968;51.424;6.788;2024-02-23T09:12:15;8.60;99.20
7846;DHT22;3968;51.424;6.788;2024-02-23T09:14:42;8.70;99.00
7846;DHT22;3968;51.424;6.788;2024-02-23T09:17:09;8.70;98.00
7846;DHT22;3968;51.424;6.788;2024-02-23T09:19:35;8.80;97.50
7846;DHT22;3968;51.424;6.788;2024-02-23T09:22:02;8.80;97.60
7846;DHT22;3968;51.424;6.788;2024-02-23T09:24:28;8.90;97.40
7846;DHT22;3968;51.424;6.788;2024-02-23T09:26:53;8.80;96.40
7846;DHT22;3968;51.424;6.788;2024-02-23T09:29:19;8.80;97.20
7846;DHT22;3968;51.424;6.788;2024-02-23T09:31:44;8.90;97.60
7846;DHT22;3968;51.424;6.788;2024-02-23T09:34:10;8.90;96.80
7846;DHT22;3968;51.424;6.788;2024-02-23T09:36:36;9.00;96.50
7846;DHT22;3968;51.424;6.788;2024-02-23T09:39:02;9.00;95.30
7846;DHT22;3968;51.424;6.788;2024-02-23T09:41:30;9.00;94.90
7846;DHT22;3968;51.424;6.788;2024-02-23T09:43:58;9.10;95.00
7846;DHT22;3968;51.424;6.788;2024-02-23T09:46:25;9.10;94.20
7846;DHT22;3968;51.424;6.788;2024-02-23T09:48:51;9.00;93.40
7846;DHT22;3968;51.424;6.788;2024-02-23T09:51:17;9.00;93.40
7846;DHT22;3968;51.424;6.788;2024-02-23T09:53:43;9.00;93.20
7846;DHT22;3968;51.424;6.788;2024-02-23T09:56:10;9.00;94.40
7846;DHT22;3968;51.424;6.788;2024-02-23T09:58:39;9.00;94.00
7846;DHT22;3968;51.424;6.788;2024-02-23T10:01:07;9.00;94.80
7846;DHT22;3968;51.424;6.788;2024-02-23T10:03:32;9.10;93.30
7846;DHT22;3968;51.424;6.788;2024-02-23T10:05:59;9.10;93.70
7846;DHT22;3968;51.424;6.788;2024-02-23T10:08:27;9.10;92.80
7846;DHT22;3968;51.424;6.788;2024-02-23T10:10:52;9.20;93.10
7846;DHT22;3968;51.424;6.788;2024-02-23T10:13:24;9.20;91.50
7846;DHT22;3968;51.424;6.788;2024-02-23T10:15:51;9.30;91.10
7846;DHT22;3968;51.424;6.788;2024-02-23T10:18:17;9.40;91.20
7846;DHT22;3968;51.424;6.788;2024-02-23T10:20:42;9.40;91.30
7846;DHT22;3968;51.424;6.788;2024-02-23T10:23:09;9.40;86.90
7846;DHT22;3968;51.424;6.788;2024-02-23T10:25:38;9.40;85.70
7846;DHT22;3968;51.424;6.788;2024-02-23T10:28:05;9.30;82.20
7846;DHT22;3968;51.424;6.788;2024-02-23T10:30:31;9.30;79.00
7846;DHT22;3968;51.424;6.788;2024-02-23T10:32:57;9.30;81.60
7846;DHT22;3968;51.424;6.788;2024-02-23T10:35:24;9.40;82.50
7846;DHT22;3968;51.424;6.788;2024-02-23T10:37:51;9.40;81.30
7846;DHT22;3968;51.424;6.788;2024-02-23T10:40:18;9.50;96.60
7846;DHT22;3968;51.424;6.788;2024-02-23T10:42:47;9.50;92.90
7846;DHT22;3968;51.424;6.788;2024-02-23T10:45:21;9.50;84.20
7846;DHT22;3968;51.424;6.788;2024-02-23T10:47:50;9.60;78.50
7846;DHT22;3968;51.424;6.788;2024-02-23T10:50:18;9.40;75.10
7846;DHT22;3968;51.424;6.788;2024-02-23T10:52:45;9.40;77.50
7846;DHT22;3968;51.424;6.788;2024-02-23T10:55:13;9.40;74.10
7846;DHT22;3968;51.424;6.788;2024-02-23T10:57:39;9.40;69.50
7846;DHT22;3968;51.424;6.788;2024-02-23T11:00:06;9.40;69.60
7846;DHT22;3968;51.424;6.788;2024-02-23T11:02:40;9.40;75.30
7846;DHT22;3968;51.424;6.788;2024-02-23T11:05:07;9.40;75.30
7846;DHT22;3968;51.424;6.788;2024-02-23T11:07:38;9.40;76.30
7846;DHT22;3968;51.424;6.788;2024-02-23T11:10:05;9.50;75.20
7846;DHT22;3968;51.424;6.788;2024-02-23T11:12:31;9.50;71.50
7846;DHT22;3968;51.424;6.788;2024-02-23T11:14:57;9.40;71.10
7846;DHT22;3968;51.424;6.788;2024-02-23T11:17:30;9.40;70.80
7846;DHT22;3968;51.424;6.788;2024-02-23T11:19:56;9.40;70.80
7846;DHT22;3968;51.424;6.788;2024-02-23T11:22:33;9.40;69.30
7846;DHT22;3968;51.424;6.788;2024-02-23T11:25:04;9.40;71.70
7846;DHT22;3968;51.424;6.788;2024-02-23T11:27:32;9.40;75.00
7846;DHT22;3968;51.424;6.788;2024-02-23T11:29:59;9.40;78.00
7846;DHT22;3968;51.424;6.788;2024-02-23T11:35:06;9.50;80.10
7846;DHT22;3968;51.424;6.788;2024-02-23T11:37:31;9.50;79.10
7846;DHT22;3968;51.424;6.788;2024-02-23T11:39:59;9.50;77.00
7846;DHT22;3968;51.424;6.788;2024-02-23T11:42:27;9.40;79.00
7846;DHT22;3968;51.424;6.788;2024-02-23T11:44:53;9.40;77.90
7846;DHT22;3968;51.424;6.788;2024-02-23T11:47:21;9.50;76.90
7846;DHT22;3968;51.424;6.788;2024-02-23T11:49:46;9.50;75.80
7846;DHT22;3968;51.424;6.788;2024-02-23T11:52:12;9.50;72.80
7846;DHT22;3968;51.424;6.788;2024-02-23T11:54:38;9.50;73.00
7846;DHT22;3968;51.424;6.788;2024-02-23T11:57:03;9.40;75.10
7846;DHT22;3968;51.424;6.788;2024-02-23T11:59:29;9.40;82.80
7846;DHT22;3968;51.424;6.788;2024-02-23T12:01:55;9.50;86.60
7846;DHT22;3968;51.424;6.788;2024-02-23T12:04:20;9.50;87.10
7846;DHT22;3968;51.424;6.788;2024-02-23T12:06:46;9.50;85.30
7846;DHT22;3968;51.424;6.788;2024-02-23T12:09:14;9.60;82.90
7846;DHT22;3968;51.424;6.788;2024-02-23T12:11:39;9.60;77.60
7846;DHT22;3968;51.424;6.788;2024-02-23T12:14:05;9.70;79.90
7846;DHT22;3968;51.424;6.788;2024-02-23T12:16:34;9.70;78.90
7846;DHT22;3968;51.424;6.788;2024-02-23T12:19:02;9.70;81.40
7846;DHT22;3968;51.424;6.788;2024-02-23T12:21:28;9.80;81.80
7846;DHT22;3968;51.424;6.788;2024-02-23T12:23:54;9.80;81.90
7846;DHT22;3968;51.424;6.788;2024-02-23T12:26:20;9.80;81.60
7846;DHT22;3968;51.424;6.788;2024-02-23T12:28:46;9.80;78.30
7846;DHT22;3968;51.424;6.788;2024-02-23T12:31:12;9.80;75.20
7846;DHT22;3968;51.424;6.788;2024-02-23T12:33:44;9.80;75.40
7846;DHT22;3968;51.424;6.788;2024-02-23T12:36:13;9.70;76.40
7846;DHT22;3968;51.424;6.788;2024-02-23T12:38:39;9.70;74.60
7846;DHT22;3968;51.424;6.788;2024-02-23T12:41:04;9.70;77.00
7846;DHT22;3968;51.424;6.788;2024-02-23T12:43:30;9.70;78.10
7846;DHT22;3968;51.424;6.788;2024-02-23T12:45:57;9.70;78.00
7846;DHT22;3968;51.424;6.788;2024-02-23T12:48:23;9.70;79.70
7846;DHT22;3968;51.424;6.788;2024-02-23T12:50:49;9.70;80.10
7846;DHT22;3968;51.424;6.788;2024-02-23T12:53:35;9.80;82.10
7846;DHT22;3968;51.424;6.788;2024-02-23T12:56:03;9.90;84.10
7846;DHT22;3968;51.424;6.788;2024-02-23T12:58:30;10.10;79.80
7846;DHT22;3968;51.424;6.788;2024-02-23T13:00:56;10.10;75.90
7846;DHT22;3968;51.424;6.788;2024-02-23T13:03:26;10.20;72.70
7846;DHT22;3968;51.424;6.788;2024-02-23T13:05:56;10.20;66.00
7846;DHT22;3968;51.424;6.788;2024-02-23T13:08:22;10.20;64.20
7846;DHT22;3968;51.424;6.788;2024-02-23T13:10:52;10.20;63.00
7846;DHT22;3968;51.424;6.788;2024-02-23T13:13:18;10.10;63.60
7846;DHT22;3968;51.424;6.788;2024-02-23T13:15:45;10.10;69.50
7846;DHT22;3968;51.424;6.788;2024-02-23T13:18:11;10.10;73.20
7846;DHT22;3968;51.424;6.788;2024-02-23T13:20:37;10.10;72.70
7846;DHT22;3968;51.424;6.788;2024-02-23T13:23:04;10.20;67.60
7846;DHT22;3968;51.424;6.788;2024-02-23T13:25:29;10.20;69.30
7846;DHT22;3968;51.424;6.788;2024-02-23T13:27:55;10.20;69.80
7846;DHT22;3968;51.424;6.788;2024-02-23T13:30:21;10.10;70.30
7846;DHT22;3968;51.424;6.788;2024-02-23T13:32:46;10.20;66.80
7846;DHT22;3968;51.424;6.788;2024-02-23T13:35:12;10.10;75.30
7846;DHT22;3968;51.424;6.788;2024-02-23T13:37:40;10.20;68.60
7846;DHT22;3968;51.424;6.788;2024-02-23T13:40:07;10.20;66.20
7846;DHT22;3968;51.424;6.788;2024-02-23T13:42:34;10.10;72.10
7846;DHT22;3968;51.424;6.788;2024-02-23T13:45:01;10.10;69.50
7846;DHT22;3968;51.424;6.788;2024-02-23T13:47:26;10.10;68.50
7846;DHT22;3968;51.424;6.788;2024-02-23T13:49:52;10.20;68.20
7846;DHT22;3968;51.424;6.788;2024-02-23T13:52:17;10.20;65.90
7846;DHT22;3968;51.424;6.788;2024-02-23T13:54:43;10.20;57.10
7846;DHT22;3968;51.424;6.788;2024-02-23T13:57:09;10.20;58.80
7846;DHT22;3968;51.424;6.788;2024-02-23T13:59:34;10.20;56.20
7846;DHT22;3968;51.424;6.788;2024-02-23T14:02:00;10.30;57.20
7846;DHT22;3968;51.424;6.788;2024-02-23T14:04:25;10.30;56.70
7846;DHT22;3968;51.424;6.788;2024-02-23T14:06:51;10.30;54.80
7846;DHT22;3968;51.424;6.788;2024-02-23T14:09:17;10.40;49.10
7846;DHT22;3968;51.424;6.788;2024-02-23T14:11:43;10.40;48.30
7846;DHT22;3968;51.424;6.788;2024-02-23T14:14:08;10.30;50.70
7846;DHT22;3968;51.424;6.788;2024-02-23T14:16:34;10.30;51.60
7846;DHT22;3968;51.424;6.788;2024-02-23T14:19:00;10.30;54.10
7846;DHT22;3968;51.424;6.788;2024-02-23T14:21:26;10.30;51.60
7846;DHT22;3968;51.424;6.788;2024-02-23T14:23:52;10.30;52.10
7846;DHT22;3968;51.424;6.788;2024-02-23T14:26:17;10.40;53.00
7846;DHT22;3968;51.424;6.788;2024-02-23T14:28:43;10.40;56.20
7846;DHT22;3968;51.424;6.788;2024-02-23T14:31:09;10.40;55.40
7846;DHT22;3968;51.424;6.788;2024-02-23T14:33:34;10.40;62.40
7846;DHT22;3968;51.424;6.788;2024-02-23T14:36:00;10.50;60.20
7846;DHT22;3968;51.424;6.788;2024-02-23T14:38:25;10.50;57.60
7846;DHT22;3968;51.424;6.788;2024-02-23T14:40:51;10.50;61.30
7846;DHT22;3968;51.424;6.788;2024-02-23T14:43:18;10.60;62.70
7846;DHT22;3968;51.424;6.788;2024-02-23T14:45:44;10.60;53.50
7846;DHT22;3968;51.424;6.788;2024-02-23T14:48:09;10.70;50.20
7846;DHT22;3968;51.424;6.788;2024-02-23T14:50:35;10.70;46.90
7846;DHT22;3968;51.424;6.788;2024-02-23T14:53:01;10.70;43.50
7846;DHT22;3968;51.424;6.788;2024-02-23T14:55:26;10.70;40.50
7846;DHT22;3968;51.424;6.788;2024-02-23T14:57:52;10.70;43.50
7846;DHT22;3968;51.424;6.788;2024-02-23T15:00:18;10.70;39.30
7846;DHT22;3968;51.424;6.788;2024-02-23T15:02:43;10.60;36.30
7846;DHT22;3968;51.424;6.788;2024-02-23T15:05:09;10.60;37.10
7846;DHT22;3968;51.424;6.788;2024-02-23T15:07:36;10.60;36.70
7846;DHT22;3968;51.424;6.788;2024-02-23T15:10:03;10.50;37.20
7846;DHT22;3968;51.424;6.788;2024-02-23T15:12:36;10.50;43.20
7846;DHT22;3968;51.424;6.788;2024-02-23T15:15:02;10.40;45.80
7846;DHT22;3968;51.424;6.788;2024-02-23T15:17:29;10.40;50.10
7846;DHT22;3968;51.424;6.788;2024-02-23T15:19:55;10.30;53.20
7846;DHT22;3968;51.424;6.788;2024-02-23T15:22:20;10.30;56.30
7846;DHT22;3968;51.424;6.788;2024-02-23T15:24:46;10.40;59.50
7846;DHT22;3968;51.424;6.788;2024-02-23T15:27:15;10.40;62.10
7846;DHT22;3968;51.424;6.788;2024-02-23T15:29:41;10.40;89.50
7846;DHT22;3968;51.424;6.788;2024-02-23T15:32:08;10.50;99.70
7846;DHT22;3968;51.424;6.788;2024-02-23T15:34:34;10.50;99.90
7846;DHT22;3968;51.424;6.788;2024-02-23T15:36:59;10.60;99.90
7846;DHT22;3968;51.424;6.788;2024-02-23T15:39:25;10.50;99.90
7846;DHT22;3968;51.424;6.788;2024-02-23T15:41:51;10.50;99.90
7846;DHT22;3968;51.424;6.788;2024-02-23T15:44:17;10.40;99.90
7846;DHT22;3968;51.424;6.788;2024-02-23T15:46:42;10.30;99.90
7846;DHT22;3968;51.424;6.788;2024-02-23T15:49:08;10.20;99.90
7846;DHT22;3968;51.424;6.788;2024-02-23T15:51:34;10.10;99.90
7846;DHT22;3968;51.424;6.788;2024-02-23T15:54:02;10.00;99.90
7846;DHT22;3968;51.424;6.788;2024-02-23T15:56:28;9.80;99.90
7846;DHT22;3968;51.424;6.788;2024-02-23T15:58:53;9.70;99.90
7846;DHT22;3968;51.424;6.788;2024-02-23T16:01:20;9.60;99.90
7846;DHT22;3968;51.424;6.788;2024-02-23T16:03:45;9.60;99.90
7846;DHT22;3968;51.424;6.788;2024-02-23T16:06:11;9.50;99.90
7846;DHT22;3968;51.424;6.788;2024-02-23T16:08:44;9.40;99.90
7846;DHT22;3968;51.424;6.788;2024-02-23T16:11:11;9.30;99.90